Time;durP1;ratioP1;P1;durP2;ratioP2;P2;SDS_P1;SDS_P2;PMS_P1;PMS_P2;Temp;Humidity;BMP_temperature;BMP_pressure;BME280_temperature;BME280_humidity;BME280_pressure;Samples;Min_cycle;Max_cycle;Signal;HPM_P1;HPM_P2
2022/06/04 00:04:24;;;;;;;2.88;2.30;;;18.00;77.30;;;;;;10535546;28;20060;-64
2022/06/04 00:09:28;;;;;;;2.60;2.20;;;17.90;77.40;;;;;;10535717;28;20413;-60
2022/06/04 00:19:50;;;;;;;2.88;2.15;;;17.90;77.60;;;;;;10535170;28;20066;-64
2022/06/04 00:24:53;;;;;;;3.47;2.15;;;17.80;77.60;;;;;;10535254;28;20136;-59
2022/06/04 00:29:53;;;;;;;3.22;1.92;;;17.80;77.70;;;;;;10535357;28;20047;-63
2022/06/04 00:34:54;;;;;;;2.60;2.25;;;17.70;77.70;;;;;;10534917;28;20028;-62
2022/06/04 00:39:58;;;;;;;3.53;2.20;;;17.70;77.80;;;;;;10535069;28;20113;-60
2022/06/04 00:45:20;;;;;;;3.10;2.28;;;17.70;77.90;;;;;;10534647;28;20086;-61
2022/06/04 00:50:22;;;;;;;2.67;2.00;;;17.60;78.00;;;;;;10534911;28;20048;-61
2022/06/04 00:55:23;;;;;;;3.58;2.47;;;17.60;78.00;;;;;;10534579;28;20508;-60
2022/06/04 01:00:35;;;;;;;3.20;2.13;;;17.60;78.00;;;;;;10538546;28;20085;-63
2022/06/04 01:05:35;;;;;;;3.92;2.30;;;17.50;78.10;;;;;;10541742;28;20036;-59
2022/06/04 01:10:54;;;;;;;3.45;2.22;;;17.50;78.10;;;;;;10541538;28;20051;-64
2022/06/04 01:16:04;;;;;;;4.82;2.38;;;17.50;78.20;;;;;;10541503;28;20040;-63
2022/06/04 01:21:16;;;;;;;3.30;2.08;;;17.40;78.20;;;;;;10541210;28;20151;-61
2022/06/04 01:26:28;;;;;;;3.22;2.20;;;17.40;78.20;;;;;;10541015;28;20101;-61
2022/06/04 01:31:48;;;;;;;3.55;2.45;;;17.40;78.30;;;;;;10540775;28;20104;-65
2022/06/04 01:37:08;;;;;;;2.67;2.03;;;17.30;78.20;;;;;;10540749;28;20024;-64
2022/06/04 01:42:09;;;;;;;3.30;2.15;;;17.30;78.30;;;;;;10540619;28;20044;-64
2022/06/04 01:47:10;;;;;;;3.90;2.17;;;17.30;78.20;;;;;;10540177;28;20493;-64
2022/06/04 01:52:19;;;;;;;3.67;2.13;;;17.30;78.30;;;;;;10540043;28;20028;-61
2022/06/04 01:57:24;;;;;;;4.13;2.30;;;17.20;78.30;;;;;;10539815;28;20028;-59
2022/06/04 02:02:37;;;;;;;3.40;2.40;;;17.20;78.40;;;;;;10539520;28;20035;-61
2022/06/04 02:07:42;;;;;;;3.08;2.38;;;17.20;78.50;;;;;;10539403;28;20036;-61
2022/06/04 02:12:45;;;;;;;6.22;2.65;;;17.10;78.40;;;;;;10538343;28;20537;-61
2022/06/04 02:17:50;;;;;;;4.00;2.25;;;17.10;78.50;;;;;;10539370;28;20487;-64
2022/06/04 02:22:52;;;;;;;3.10;1.88;;;17.10;78.40;;;;;;10539250;28;20028;-64
2022/06/04 02:27:53;;;;;;;3.83;2.50;;;17.00;78.40;;;;;;10538821;28;20055;-65
2022/06/04 02:32:59;;;;;;;2.92;2.00;;;17.00;78.40;;;;;;10538465;28;20028;-63
2022/06/04 02:38:34;;;;;;;3.40;2.38;;;17.00;78.40;;;;;;10538366;28;20074;-65
2022/06/04 02:43:47;;;;;;;3.00;2.30;;;16.90;78.60;;;;;;10528817;28;20044;-60
2022/06/04 02:49:10;;;;;;;3.75;2.22;;;16.90;78.50;;;;;;10537892;28;20079;-64
2022/06/04 02:54:24;;;;;;;4.82;2.58;;;16.90;78.60;;;;;;10537488;28;20423;-61
2022/06/04 02:59:27;;;;;;;4.13;2.40;;;16.80;78.50;;;;;;10537570;28;20454;-64
2022/06/04 03:04:39;;;;;;;3.15;2.30;;;16.80;78.50;;;;;;10537321;28;20130;-61
2022/06/04 03:09:40;;;;;;;4.30;2.45;;;16.70;78.50;;;;;;10536814;28;20474;-62
2022/06/04 03:14:41;;;;;;;6.00;2.60;;;16.70;78.50;;;;;;10536919;28;20036;-60
2022/06/04 03:19:42;;;;;;;4.78;2.50;;;16.70;78.60;;;;;;10536578;28;20366;-64
2022/06/04 03:24:42;;;;;;;3.38;2.20;;;16.70;78.60;;;;;;10536392;28;20028;-60
2022/06/04 03:29:43;;;;;;;3.58;2.70;;;16.70;78.60;;;;;;10536514;28;20040;-62
2022/06/04 03:34:44;;;;;;;5.97;2.75;;;16.70;78.60;;;;;;10536451;28;20044;-63
2022/06/04 03:39:44;;;;;;;4.10;2.30;;;16.60;78.60;;;;;;10536215;28;20036;-64
2022/06/04 03:44:47;;;;;;;4.78;2.50;;;16.60;78.60;;;;;;10535799;28;20490;-61
2022/06/04 03:49:48;;;;;;;4.43;2.60;;;16.60;78.60;;;;;;10535899;28;20040;-63
2022/06/04 03:54:52;;;;;;;3.72;2.65;;;16.60;78.60;;;;;;10536039;28;20427;-63
2022/06/04 03:59:53;;;;;;;5.35;2.92;;;16.60;78.60;;;;;;10535795;28;20480;-65
2022/06/04 04:04:54;;;;;;;4.63;3.00;;;16.60;78.70;;;;;;10535725;28;20105;-63
2022/06/04 04:09:54;;;;;;;4.82;2.72;;;16.50;78.60;;;;;;10534570;28;20048;-64
2022/06/04 04:14:56;;;;;;;3.97;2.60;;;16.50;78.60;;;;;;10535649;28;20165;-64
2022/06/04 04:19:56;;;;;;;4.15;2.75;;;16.50;78.70;;;;;;10535388;28;20069;-62
2022/06/04 04:24:57;;;;;;;3.65;2.33;;;16.50;78.70;;;;;;10535714;28;20543;-65
2022/06/04 04:29:58;;;;;;;5.47;3.00;;;16.50;78.70;;;;;;10535173;28;20372;-62
2022/06/04 04:35:00;;;;;;;4.45;2.50;;;16.50;78.70;;;;;;10538911;28;20033;-60
2022/06/04 04:40:01;;;;;;;2.92;2.45;;;16.40;78.70;;;;;;10542977;28;20024;-64
2022/06/04 04:45:02;;;;;;;5.13;2.58;;;16.40;78.80;;;;;;10542619;28;20044;-64
2022/06/04 04:50:11;;;;;;;4.05;2.63;;;16.40;78.80;;;;;;10542691;28;20044;-65
2022/06/04 04:55:11;;;;;;;3.38;2.50;;;16.40;78.80;;;;;;10542298;28;20044;-65
2022/06/04 05:00:15;;;;;;;4.30;2.70;;;16.40;78.80;;;;;;10542374;28;20456;-64
2022/06/04 05:05:16;;;;;;;3.97;2.72;;;16.30;78.80;;;;;;10542037;28;20056;-64
2022/06/04 05:10:17;;;;;;;3.15;2.58;;;16.30;78.80;;;;;;10541688;28;20553;-61
2022/06/04 05:15:18;;;;;;;5.00;2.38;;;16.30;78.80;;;;;;10541826;28;20492;-63
2022/06/04 05:20:19;;;;;;;4.78;2.92;;;16.30;78.80;;;;;;10541999;28;20048;-59
2022/06/04 05:25:20;;;;;;;3.95;2.60;;;16.40;78.80;;;;;;10541475;28;20040;-59
2022/06/04 05:30:20;;;;;;;4.78;2.10;;;16.40;78.80;;;;;;10541078;28;20135;-61
2022/06/04 05:35:21;;;;;;;4.75;2.33;;;16.30;78.80;;;;;;10540971;28;20043;-62
2022/06/04 05:40:22;;;;;;;4.60;2.20;;;16.30;78.80;;;;;;10540566;28;20062;-62
2022/06/04 05:45:23;;;;;;;2.70;2.33;;;16.40;78.90;;;;;;10538864;28;20147;-63
2022/06/04 05:50:24;;;;;;;2.83;2.03;;;16.40;78.90;;;;;;10540366;28;20080;-62
2022/06/04 05:55:25;;;;;;;4.10;2.75;;;16.40;78.90;;;;;;10539625;28;20032;-60
2022/06/04 06:00:25;;;;;;;4.88;2.63;;;16.40;78.90;;;;;;10539679;28;20437;-61
2022/06/04 06:05:26;;;;;;;3.08;2.17;;;16.40;79.00;;;;;;10539431;28;20036;-61
2022/06/04 06:10:27;;;;;;;3.60;2.22;;;16.40;79.20;;;;;;10539327;28;20047;-63
2022/06/04 06:15:27;;;;;;;5.18;2.35;;;16.40;79.20;;;;;;10539090;28;20115;-59
2022/06/04 06:20:28;;;;;;;3.00;2.08;;;16.40;79.30;;;;;;10539092;28;20081;-64
2022/06/04 06:25:29;;;;;;;4.35;2.33;;;16.40;79.40;;;;;;10538597;28;20476;-63
2022/06/04 06:30:30;;;;;;;2.75;2.20;;;16.40;79.50;;;;;;10538703;28;20051;-64
2022/06/04 06:35:30;;;;;;;4.10;2.25;;;16.40;79.60;;;;;;10537720;28;20027;-63
2022/06/04 06:40:31;;;;;;;3.58;2.13;;;16.40;79.60;;;;;;10537696;28;20503;-60
2022/06/04 06:45:32;;;;;;;2.58;2.08;;;16.50;79.70;;;;;;10537727;28;20109;-63
2022/06/04 06:50:34;;;;;;;2.00;1.80;;;16.50;79.80;;;;;;10537421;28;20039;-64
2022/06/04 06:55:35;;;;;;;2.78;1.88;;;16.50;79.90;;;;;;10536994;28;20366;-64
2022/06/04 07:00:35;;;;;;;2.33;1.98;;;16.50;79.90;;;;;;10536846;28;20119;-63
2022/06/04 07:05:37;;;;;;;2.38;1.80;;;16.50;79.90;;;;;;10536779;28;20039;-63
2022/06/04 07:10:38;;;;;;;2.42;2.05;;;16.50;80.00;;;;;;10536599;28;20358;-63
2022/06/04 07:15:39;;;;;;;3.67;1.98;;;16.50;80.00;;;;;;10536395;28;20127;-61
2022/06/04 07:20:42;;;;;;;3.25;2.13;;;16.50;79.90;;;;;;10536285;28;20036;-64
2022/06/04 07:25:44;;;;;;;3.13;1.80;;;16.60;79.90;;;;;;10536838;28;20554;-60
2022/06/04 07:30:45;;;;;;;2.25;1.80;;;16.60;80.00;;;;;;10536335;28;20518;-61
2022/06/04 07:35:50;;;;;;;2.63;1.85;;;16.60;79.90;;;;;;10536580;28;20090;-64
2022/06/04 07:40:51;;;;;;;7.72;2.70;;;16.60;80.60;;;;;;10536314;28;20032;-73
2022/06/04 07:45:52;;;;;;;4.85;2.70;;;16.50;80.10;;;;;;10535832;28;20138;-72
2022/06/04 07:50:52;;;;;;;5.68;3.20;;;16.00;82.10;;;;;;10535936;28;20048;-61
2022/06/04 07:55:53;;;;;;;4.50;2.63;;;15.80;82.40;;;;;;10535829;28;20028;-69
2022/06/04 08:00:58;;;;;;;6.05;2.80;;;15.70;83.10;;;;;;10535787;28;20032;-73
2022/06/04 08:05:59;;;;;;;8.45;3.70;;;15.80;83.40;;;;;;10536075;28;20020;-68
2022/06/04 08:11:01;;;;;;;4.25;3.15;;;15.90;83.10;;;;;;10541575;28;20071;-59
2022/06/04 08:16:01;;;;;;;4.95;3.03;;;15.90;83.20;;;;;;10545135;28;20067;-61
2022/06/04 08:21:05;;;;;;;7.45;3.40;;;15.90;83.00;;;;;;10544740;28;20152;-76
2022/06/04 08:26:08;;;;;;;8.23;3.50;;;15.90;83.20;;;;;;10545840;28;20036;-77
2022/06/04 08:31:12;;;;;;;7.45;3.58;;;16.00;83.40;;;;;;10545521;28;20050;-61
2022/06/04 08:36:16;;;;;;;6.75;3.42;;;15.90;83.30;;;;;;10544036;28;20060;-59
2022/06/04 08:41:43;;;;;;;9.57;3.90;;;15.90;83.30;;;;;;10542165;28;20049;-59
2022/06/04 08:47:07;;;;;;;7.03;3.42;;;15.90;83.80;;;;;;10544270;28;20162;-63
2022/06/04 08:52:39;;;;;;;7.30;3.75;;;16.00;84.00;;;;;;10544729;28;20028;-60
2022/06/04 08:57:47;;;;;;;4.95;3.53;;;16.00;83.50;;;;;;10542286;28;20044;-74
2022/06/04 09:02:58;;;;;;;5.40;3.33;;;16.20;83.00;;;;;;10542080;28;20032;-77
2022/06/04 09:08:05;;;;;;;7.32;3.83;;;16.30;83.00;;;;;;10541921;28;20047;-72
2022/06/04 09:13:16;;;;;;;4.78;3.05;;;16.30;82.70;;;;;;10541667;28;20024;-75
2022/06/04 09:18:22;;;;;;;8.18;3.70;;;16.50;82.90;;;;;;10541413;28;20031;-65
2022/06/04 09:23:35;;;;;;;5.90;3.00;;;16.60;82.20;;;;;;10541099;28;20028;-74
2022/06/04 09:29:20;;;;;;;6.75;3.25;;;16.80;82.50;;;;;;10540916;28;20056;-75
2022/06/04 09:34:24;;;;;;;5.15;3.13;;;16.80;81.90;;;;;;10479272;28;20041;-62
2022/06/04 09:39:29;;;;;;;5.20;3.53;;;16.90;81.80;;;;;;10530283;28;20032;-70
2022/06/04 09:44:32;;;;;;;10.85;4.10;;;17.10;81.80;;;;;;10537834;28;20563;-76
2022/06/04 09:49:39;;;;;;;6.85;3.75;;;17.20;81.70;;;;;;10540101;28;20060;-60
2022/06/04 09:54:42;;;;;;;8.48;3.40;;;17.40;81.90;;;;;;10540075;28;20422;-70
2022/06/04 09:59:53;;;;;;;5.05;3.03;;;17.60;81.50;;;;;;10521639;28;20405;-74
2022/06/04 10:05:06;;;;;;;6.97;4.18;;;17.80;81.00;;;;;;10539597;28;20024;-71
2022/06/04 10:10:33;;;;;;;5.95;3.20;;;17.90;80.90;;;;;;10539138;28;20078;-60
2022/06/04 10:15:34;;;;;;;7.20;3.40;;;17.90;80.00;;;;;;10521078;28;20024;-60
2022/06/04 10:20:34;;;;;;;8.15;3.33;;;18.00;80.10;;;;;;10538731;28;20206;-61
2022/06/04 10:25:50;;;;;;;4.53;3.22;;;18.10;79.80;;;;;;10538975;28;20036;-64
2022/06/04 10:31:02;;;;;;;5.70;3.20;;;18.30;79.60;;;;;;10537937;28;20051;-69
2022/06/04 10:36:18;;;;;;;6.38;3.45;;;18.40;79.30;;;;;;10538288;28;20176;-60
2022/06/04 10:42:11;;;;;;;8.95;3.35;;;18.60;78.90;;;;;;10538247;28;20548;-71
2022/06/04 10:47:30;;;;;;;7.20;3.33;;;18.60;78.90;;;;;;10503607;28;20048;-60
2022/06/04 10:52:31;;;;;;;5.82;3.83;;;18.70;79.20;;;;;;10537756;28;20107;-65
2022/06/04 10:57:45;;;;;;;6.18;3.90;;;18.80;79.00;;;;;;10537378;28;20048;-61
2022/06/04 11:03:05;;;;;;;5.65;3.63;;;19.00;78.90;;;;;;10537393;28;20070;-68
2022/06/04 11:08:20;;;;;;;6.50;3.90;;;19.10;79.50;;;;;;10543467;28;20051;-61
2022/06/04 11:13:45;;;;;;;6.22;3.88;;;19.10;79.20;;;;;;10536979;28;20046;-69
2022/06/04 11:18:57;;;;;;;6.93;4.22;;;19.10;79.10;;;;;;10536839;28;20124;-68
2022/06/04 11:24:16;;;;;;;7.72;4.38;;;19.10;79.30;;;;;;10536570;28;20039;-68
2022/06/04 11:29:17;;;;;;;7.97;3.58;;;19.20;78.80;;;;;;10536158;28;20047;-72
2022/06/04 11:34:40;;;;;;;8.70;3.45;;;19.20;78.70;;;;;;10536348;28;20028;-70
2022/06/04 11:40:05;;;;;;;5.43;3.38;;;19.30;78.10;;;;;;10535958;28;20028;-72
2022/06/04 11:45:15;;;;;;;6.25;3.55;;;19.40;78.10;;;;;;10535844;28;20044;-63
2022/06/04 11:50:32;;;;;;;7.75;3.47;;;19.60;77.80;;;;;;10535628;28;20040;-69
2022/06/04 11:55:47;;;;;;;5.13;3.35;;;19.90;77.20;;;;;;10535738;28;20039;-71
2022/06/04 12:00:48;;;;;;;5.53;3.22;;;20.20;76.60;;;;;;10535754;28;20062;-71
2022/06/04 12:06:17;;;;;;;3.67;2.60;;;20.60;75.80;;;;;;10535382;28;20511;-64
2022/06/04 12:11:29;;;;;;;4.38;3.03;;;20.70;74.00;;;;;;10535481;28;20047;-72
2022/06/04 12:16:47;;;;;;;5.43;2.42;;;20.40;74.00;;;;;;10535376;28;20074;-70
2022/06/04 12:27:24;;;;;;;4.68;3.10;;;20.30;75.30;;;;;;10535019;28;20418;-61
2022/06/04 12:32:35;;;;;;;4.25;2.42;;;20.20;75.60;;;;;;10535221;28;20040;-65
2022/06/04 12:37:40;;;;;;;4.28;3.10;;;20.20;75.70;;;;;;10534892;28;20024;-63
2022/06/04 12:42:45;;;;;;;4.35;2.90;;;20.20;75.30;;;;;;10534763;28;20477;-60
2022/06/04 12:47:55;;;;;;;9.57;3.53;;;20.30;75.00;;;;;;10534570;28;20051;-66
2022/06/04 12:53:18;;;;;;;5.68;2.60;;;20.50;74.20;;;;;;10534529;28;20120;-70
2022/06/04 12:58:49;;;;;;;5.50;2.65;;;20.80;73.50;;;;;;10542083;28;20543;-66
2022/06/04 13:04:11;;;;;;;4.30;2.78;;;20.80;72.10;;;;;;10542167;28;20043;-60
2022/06/04 13:09:40;;;;;;;4.88;2.78;;;20.70;72.10;;;;;;10541603;28;20453;-74
2022/06/04 13:14:44;;;;;;;5.75;2.83;;;20.70;73.10;;;;;;10541464;28;20089;-71
2022/06/04 13:20:38;;;;;;;3.90;2.60;;;20.80;73.80;;;;;;10541404;28;20035;-75
2022/06/04 13:25:59;;;;;;;3.75;2.50;;;20.70;73.00;;;;;;10499761;28;20123;-69
2022/06/04 13:31:01;;;;;;;4.97;2.63;;;20.80;72.50;;;;;;10540754;28;20040;-72
2022/06/04 13:36:03;;;;;;;7.25;2.90;;;21.10;73.00;;;;;;10540500;28;20036;-66
2022/06/04 13:41:07;;;;;;;4.10;2.75;;;21.30;72.20;;;;;;10540478;28;20119;-68
2022/06/04 13:46:22;;;;;;;3.30;2.50;;;21.40;71.80;;;;;;10539916;28;20562;-60
2022/06/04 13:51:26;;;;;;;4.97;2.92;;;21.50;71.20;;;;;;10540092;28;20055;-60
2022/06/04 13:56:34;;;;;;;6.13;3.00;;;21.30;71.40;;;;;;10539971;28;20028;-64
2022/06/04 14:01:38;;;;;;;7.50;2.40;;;21.40;71.70;;;;;;10539673;28;20481;-66
2022/06/04 14:06:39;;;;;;;4.55;2.40;;;21.70;71.10;;;;;;10538424;28;20404;-62
2022/06/04 14:11:59;;;;;;;4.90;2.70;;;21.90;70.60;;;;;;10537865;28;20039;-60
2022/06/04 14:17:15;;;;;;;5.05;2.60;;;22.10;69.40;;;;;;10521085;28;20048;-59
2022/06/04 14:22:27;;;;;;;3.65;2.42;;;22.40;69.40;;;;;;10521045;28;20040;-62
2022/06/04 14:27:43;;;;;;;3.45;2.50;;;22.50;69.30;;;;;;10538750;28;20044;-61
2022/06/04 14:32:48;;;;;;;4.32;2.70;;;22.50;68.40;;;;;;10538763;28;20051;-72
2022/06/04 14:37:51;;;;;;;3.97;2.47;;;22.50;69.50;;;;;;10538460;28;20046;-61
2022/06/04 14:43:05;;;;;;;4.68;2.58;;;22.60;69.30;;;;;;10538078;28;20535;-62
2022/06/04 14:48:25;;;;;;;5.28;2.75;;;22.50;69.00;;;;;;10537952;28;20136;-71
2022/06/04 14:53:26;;;;;;;4.80;2.42;;;22.60;68.10;;;;;;10537291;28;20126;-69
2022/06/04 14:59:01;;;;;;;3.47;2.67;;;22.50;69.30;;;;;;10537441;28;20097;-73
2022/06/04 15:04:29;;;;;;;5.38;2.70;;;22.60;69.50;;;;;;10537085;28;20046;-62
2022/06/04 15:09:36;;;;;;;4.03;2.50;;;22.70;69.10;;;;;;10536961;28;20038;-70
2022/06/04 15:14:49;;;;;;;5.13;2.20;;;22.70;69.40;;;;;;10536822;28;20428;-67
2022/06/04 15:20:09;;;;;;;3.38;2.40;;;22.70;69.60;;;;;;10536367;28;20409;-62
2022/06/04 15:26:00;;;;;;;4.35;2.80;;;22.90;69.40;;;;;;10535887;28;20063;-62
2022/06/04 15:36:44;;;;;;;5.60;2.95;;;22.90;69.20;;;;;;10529730;28;20032;-68
2022/06/04 15:42:15;;;;;;;5.00;2.35;;;22.60;69.40;;;;;;10535469;28;20137;-70
2022/06/04 15:47:17;;;;;;;4.57;2.78;;;22.40;69.00;;;;;;10535674;28;20085;-69
2022/06/04 15:58:17;;;;;;;4.82;2.75;;;22.30;70.10;;;;;;10535252;28;20024;-61
2022/06/04 16:03:27;;;;;;;5.63;2.72;;;22.10;70.20;;;;;;10535425;28;20040;-62
2022/06/04 16:08:29;;;;;;;9.23;3.55;;;21.80;70.60;;;;;;10535048;28;20521;-61
2022/06/04 16:13:36;;;;;;;4.85;2.80;;;21.60;71.60;;;;;;10535272;28;20036;-64
2022/06/04 16:18:49;;;;;;;3.85;2.80;;;21.40;71.90;;;;;;10517179;28;20131;-62
2022/06/04 16:24:06;;;;;;;4.82;2.92;;;21.30;72.00;;;;;;10535043;28;20044;-60
2022/06/04 16:29:29;;;;;;;5.35;2.70;;;21.20;72.20;;;;;;10535378;28;20036;-66
2022/06/04 16:35:03;;;;;;;6.82;2.92;;;21.10;72.10;;;;;;10543306;28;20028;-63
2022/06/04 16:40:07;;;;;;;5.22;2.90;;;21.00;72.40;;;;;;10538583;28;20093;-69
2022/06/04 16:45:19;;;;;;;3.92;2.95;;;21.00;72.80;;;;;;10542477;28;20063;-61
2022/06/04 16:50:23;;;;;;;4.90;3.33;;;20.90;72.90;;;;;;10542274;28;20512;-64
2022/06/04 16:55:27;;;;;;;4.63;3.13;;;20.80;73.20;;;;;;10542190;28;20032;-67
2022/06/04 17:00:53;;;;;;;6.53;3.05;;;20.80;73.40;;;;;;10542063;28;20039;-71
2022/06/04 17:06:17;;;;;;;6.72;3.45;;;20.70;73.70;;;;;;10542032;28;20039;-60
2022/06/04 17:11:52;;;;;;;6.32;3.00;;;20.60;73.90;;;;;;10541493;28;20093;-61
2022/06/04 17:17:15;;;;;;;7.93;3.40;;;20.50;74.20;;;;;;10537152;28;20212;-66
2022/06/04 17:22:23;;;;;;;8.88;3.40;;;20.50;74.10;;;;;;10541445;28;20472;-68
2022/06/04 17:27:48;;;;;;;5.95;3.40;;;20.40;75.00;;;;;;10540751;28;20040;-69
2022/06/04 17:33:02;;;;;;;4.93;3.40;;;20.30;74.50;;;;;;10541028;28;20530;-60
2022/06/04 17:38:06;;;;;;;5.20;3.20;;;20.20;74.60;;;;;;10540713;28;20109;-60
2022/06/04 17:43:07;;;;;;;6.15;3.30;;;20.20;74.80;;;;;;10539961;28;20048;-60
2022/06/04 17:48:07;;;;;;;4.93;3.13;;;20.40;74.90;;;;;;10540151;28;20045;-62
2022/06/04 17:53:09;;;;;;;6.93;3.03;;;20.50;74.70;;;;;;10539895;28;20040;-58
2022/06/04 17:58:10;;;;;;;4.88;2.70;;;20.70;74.60;;;;;;10539853;28;20036;-62
2022/06/04 18:03:15;;;;;;;8.88;3.10;;;20.80;74.50;;;;;;10539888;28;20216;-60
2022/06/04 18:08:16;;;;;;;4.75;2.67;;;20.90;74.60;;;;;;10539291;28;20036;-61
2022/06/04 18:13:16;;;;;;;4.03;2.42;;;20.90;74.60;;;;;;10538895;28;20075;-61
2022/06/04 18:18:17;;;;;;;3.33;2.67;;;20.90;74.60;;;;;;10539199;28;20028;-59
2022/06/04 18:23:18;;;;;;;5.90;2.92;;;21.00;74.70;;;;;;10538670;28;20032;-62
2022/06/04 18:28:19;;;;;;;4.35;2.67;;;21.00;74.90;;;;;;10538483;28;20523;-62
2022/06/04 18:33:20;;;;;;;4.45;2.70;;;21.00;75.10;;;;;;10538275;28;20111;-60
2022/06/04 18:38:20;;;;;;;4.18;2.33;;;20.90;75.10;;;;;;10536894;28;20129;-60
2022/06/04 18:59:20;;;;;;;4.72;2.55;;;20.80;75.70;;;;;;10537657;28;20024;-61
2022/06/04 19:04:21;;;;;;;6.32;2.47;;;20.80;76.00;;;;;;10537707;28;20033;-61
2022/06/04 19:09:22;;;;;;;3.78;2.47;;;20.80;76.10;;;;;;10518837;28;20143;-61
2022/06/04 19:14:24;;;;;;;4.38;2.28;;;20.80;76.20;;;;;;10537022;28;20575;-61
2022/06/04 19:19:26;;;;;;;3.95;2.42;;;20.70;76.20;;;;;;10536816;28;20028;-61
2022/06/04 19:24:36;;;;;;;3.50;2.70;;;20.70;76.30;;;;;;10537048;28;20036;-61
2022/06/04 19:29:41;;;;;;;4.35;2.47;;;20.70;76.40;;;;;;10535452;28;20052;-61
2022/06/04 19:34:42;;;;;;;3.97;2.53;;;20.60;76.50;;;;;;10536401;28;20062;-61
2022/06/04 19:39:44;;;;;;;4.05;2.60;;;20.50;76.60;;;;;;10536207;28;20043;-61
2022/06/04 19:44:44;;;;;;;4.35;2.30;;;20.50;76.70;;;;;;10536069;28;20123;-61
2022/06/04 19:49:49;;;;;;;5.15;3.00;;;20.50;76.90;;;;;;10535883;28;20139;-61
2022/06/04 19:55:05;;;;;;;5.72;2.67;;;20.50;77.10;;;;;;10535966;28;20077;-61
2022/06/04 20:00:09;;;;;;;4.15;2.80;;;20.40;77.20;;;;;;10535731;28;20032;-61
2022/06/04 20:05:10;;;;;;;4.78;2.88;;;20.40;77.30;;;;;;10538283;28;20055;-61
2022/06/04 20:10:12;;;;;;;4.57;2.70;;;20.30;77.40;;;;;;10544084;28;20142;-61
2022/06/04 20:15:13;;;;;;;4.70;2.85;;;20.20;77.50;;;;;;10544049;28;20043;-60
2022/06/04 20:20:21;;;;;;;6.15;2.85;;;20.20;77.60;;;;;;10543648;28;20507;-61
2022/06/04 20:25:22;;;;;;;6.47;3.00;;;20.20;77.80;;;;;;10544132;28;20499;-60
2022/06/04 20:30:23;;;;;;;3.40;2.70;;;20.10;77.80;;;;;;10543473;28;20205;-60
2022/06/04 20:35:24;;;;;;;5.90;2.90;;;20.10;78.00;;;;;;10543246;28;20028;-61
2022/06/04 20:40:25;;;;;;;6.38;3.42;;;20.00;78.00;;;;;;10543463;28;20044;-60
2022/06/04 20:45:26;;;;;;;6.50;2.80;;;20.00;78.10;;;;;;10538288;28;20131;-60
2022/06/04 20:50:27;;;;;;;8.77;3.25;;;20.00;78.20;;;;;;10542626;28;20450;-60
2022/06/04 20:55:28;;;;;;;5.93;2.97;;;19.90;78.20;;;;;;10542579;28;20454;-60
2022/06/04 21:00:29;;;;;;;5.00;3.20;;;19.90;78.20;;;;;;10542208;28;20082;-61
2022/06/04 21:05:29;;;;;;;8.05;2.92;;;19.90;78.30;;;;;;10541960;28;20050;-61
2022/06/04 21:10:31;;;;;;;6.60;3.22;;;19.80;78.30;;;;;;10540534;28;20109;-61
2022/06/04 21:15:33;;;;;;;4.40;3.22;;;19.80;78.40;;;;;;10541259;28;20043;-60
2022/06/04 21:20:33;;;;;;;5.38;2.97;;;19.70;78.40;;;;;;10541424;28;20032;-61
2022/06/04 21:25:42;;;;;;;5.70;3.58;;;19.70;78.50;;;;;;10541298;28;20185;-60
2022/06/04 21:30:43;;;;;;;7.28;3.70;;;19.70;78.60;;;;;;10540850;28;20391;-60
2022/06/04 21:41:18;;;;;;;5.88;3.10;;;19.50;78.60;;;;;;10467808;28;20127;-60
2022/06/04 21:46:19;;;;;;;5.30;3.08;;;19.50;78.70;;;;;;10540132;28;20139;-61
2022/06/04 21:51:20;;;;;;;7.93;3.88;;;19.40;78.70;;;;;;10539659;28;20036;-61
2022/06/04 21:56:20;;;;;;;5.90;3.28;;;19.40;78.70;;;;;;10539542;28;20055;-60
2022/06/04 22:01:40;;;;;;;7.10;3.00;;;19.30;78.70;;;;;;10539555;28;20492;-60
2022/06/04 22:06:42;;;;;;;7.05;3.25;;;19.30;78.70;;;;;;10539204;28;20033;-60
2022/06/04 22:17:04;;;;;;;5.20;3.35;;;19.20;78.80;;;;;;10539014;28;20044;-60
2022/06/04 22:22:05;;;;;;;5.90;2.70;;;19.10;78.70;;;;;;10538670;28;20040;-60
2022/06/04 22:27:07;;;;;;;3.65;2.85;;;19.10;78.80;;;;;;10537694;28;20031;-60
2022/06/04 22:32:09;;;;;;;5.45;3.00;;;19.00;78.80;;;;;;10538414;28;20040;-60
2022/06/04 22:37:10;;;;;;;5.78;2.83;;;19.00;78.80;;;;;;10538290;28;20488;-60
2022/06/04 22:42:11;;;;;;;6.60;2.88;;;19.00;78.80;;;;;;10537874;28;20131;-60
2022/06/04 22:47:17;;;;;;;4.93;3.00;;;18.90;78.70;;;;;;10537846;28;20039;-60
2022/06/04 22:52:18;;;;;;;5.00;3.20;;;18.90;78.70;;;;;;10537430;28;20097;-60
2022/06/04 22:57:18;;;;;;;5.82;2.90;;;18.90;78.70;;;;;;10537452;28;20446;-60
2022/06/04 23:02:19;;;;;;;3.45;2.78;;;18.80;78.70;;;;;;10537462;28;20058;-60
2022/06/04 23:07:20;;;;;;;4.53;2.72;;;18.80;79.40;;;;;;10536849;28;20032;-60
2022/06/04 23:23:06;;;;;;;4.72;2.53;;;18.60;78.80;;;;;;10536801;28;20112;-60
2022/06/04 23:28:08;;;;;;;4.80;2.88;;;18.60;78.70;;;;;;10536469;28;20472;-60
2022/06/04 23:33:09;;;;;;;5.78;2.90;;;18.50;78.70;;;;;;10536568;28;20111;-60
2022/06/04 23:38:10;;;;;;;5.45;2.78;;;18.50;78.70;;;;;;10535821;28;20127;-60
2022/06/04 23:43:14;;;;;;;4.07;2.60;;;18.50;79.40;;;;;;10535977;28;20052;-61
2022/06/04 23:48:16;;;;;;;2.95;2.47;;;18.40;79.40;;;;;;10535665;28;20040;-60
2022/06/04 23:53:21;;;;;;;4.40;2.67;;;18.40;78.80;;;;;;10535976;28;20047;-61
2022/06/04 23:58:21;;;;;;;3.97;2.72;;;18.40;78.80;;;;;;10535834;28;20099;-60
